Time;durP1;ratioP1;P1;durP2;ratioP2;P2;SDS_P1;SDS_P2;PMS_P1;PMS_P2;Temp;Humidity;BMP_temperature;BMP_pressure;BME280_temperature;BME280_humidity;BME280_pressure;Samples;Min_cycle;Max_cycle;Signal;HPM_P1;HPM_P2
2023/11/02 00:02:26;;;;;;;17.60;13.98;;;;;;;;;;5011174;28;20038;-51
2023/11/02 00:04:53;;;;;;;15.65;13.55;;;;;;;;;;5010681;28;20128;-53
2023/11/02 00:07:19;;;;;;;;;;;;;;;;;;5012368;28;20037;-55
2023/11/02 00:09:46;;;;;;;21.00;13.57;;;;;;;;;;5011918;28;19960;-52
2023/11/02 00:12:38;;;;;;;16.73;13.23;;;;;;;;;;5011414;28;20084;-51
2023/11/02 00:15:05;;;;;;;15.48;13.00;;;;;;;;;;5026753;28;20041;-50
2023/11/02 00:17:31;;;;;;;16.95;12.40;;;;;;;;;;5031059;28;20033;-52
2023/11/02 00:19:58;;;;;;;19.00;14.88;;;;;;;;;;5031838;28;20299;-51
2023/11/02 00:22:24;;;;;;;16.40;13.07;;;;;;;;;;5034302;28;20041;-54
2023/11/02 00:24:51;;;;;;;17.67;13.30;;;;;;;;;;5033740;28;20041;-53
2023/11/02 00:27:17;;;;;;;;;;;;;;;;;;5035411;28;20710;-51
2023/11/02 00:29:43;;;;;;;15.60;13.30;;;;;;;;;;5035207;28;20000;-52
2023/11/02 00:32:10;;;;;;;32.70;16.58;;;;;;;;;;5034827;28;20041;-53
2023/11/02 00:34:39;;;;;;;21.85;16.02;;;;;;;;;;5033879;28;20402;-50
2023/11/02 00:37:06;;;;;;;27.33;20.77;;;;;;;;;;5033640;28;20033;-51
2023/11/02 00:39:32;;;;;;;20.35;15.18;;;;;;;;;;5034949;28;20053;-50
2023/11/02 00:41:59;;;;;;;25.23;18.10;;;;;;;;;;5033712;28;20029;-52
2023/11/02 00:44:26;;;;;;;47.67;30.75;;;;;;;;;;5033384;28;20033;-52
2023/11/02 00:46:52;;;;;;;23.98;15.82;;;;;;;;;;5033519;28;20079;-52
2023/11/02 00:49:28;;;;;;;20.75;14.95;;;;;;;;;;5034781;28;20466;-49
2023/11/02 00:51:58;;;;;;;16.88;14.75;;;;;;;;;;5033068;28;20156;-52
2023/11/02 00:54:52;;;;;;;19.92;13.30;;;;;;;;;;5033498;28;20120;-53
2023/11/02 00:57:21;;;;;;;15.68;13.32;;;;;;;;;;5026819;28;20573;-50
2023/11/02 00:59:47;;;;;;;17.70;13.73;;;;;;;;;;5033676;28;20558;-51
2023/11/02 01:02:18;;;;;;;18.05;15.18;;;;;;;;;;5034265;28;20029;-50
2023/11/02 01:04:44;;;;;;;18.10;14.63;;;;;;;;;;5033559;28;20052;-50
2023/11/02 01:07:10;;;;;;;17.23;12.30;;;;;;;;;;5016928;28;20029;-50
2023/11/02 01:09:52;;;;;;;15.82;14.13;;;;;;;;;;5034413;28;20068;-54
2023/11/02 01:12:37;;;;;;;17.77;13.90;;;;;;;;;;5032835;28;20030;-49
2023/11/02 01:15:10;;;;;;;20.38;14.68;;;;;;;;;;5034445;28;20503;-50
2023/11/02 01:17:40;;;;;;;18.13;14.07;;;;;;;;;;5024788;28;20124;-55
2023/11/02 01:20:10;;;;;;;23.35;14.40;;;;;;;;;;5033255;28;20113;-55
2023/11/02 01:22:59;;;;;;;16.85;13.82;;;;;;;;;;5033606;28;20038;-50
2023/11/02 01:25:27;;;;;;;23.25;15.05;;;;;;;;;;5034426;28;20435;-50
2023/11/02 01:28:01;;;;;;;17.38;12.77;;;;;;;;;;5032527;28;20541;-50
2023/11/02 01:30:27;;;;;;;18.17;13.25;;;;;;;;;;5032809;28;20135;-50
2023/11/02 01:32:54;;;;;;;17.88;13.20;;;;;;;;;;5032701;28;20029;-50
2023/11/02 01:35:34;;;;;;;18.67;14.45;;;;;;;;;;5032885;28;20028;-55
2023/11/02 01:38:01;;;;;;;19.92;14.68;;;;;;;;;;5032771;28;20116;-54
2023/11/02 01:40:34;;;;;;;14.48;12.65;;;;;;;;;;5032628;28;20070;-53
2023/11/02 01:43:02;;;;;;;18.65;14.93;;;;;;;;;;5022423;28;20033;-51
2023/11/02 01:45:30;;;;;;;15.70;14.00;;;;;;;;;;5013124;28;20026;-51
2023/11/02 01:48:19;;;;;;;21.73;15.43;;;;;;;;;;5031393;28;20037;-52
2023/11/02 01:50:49;;;;;;;22.15;13.73;;;;;;;;;;5026089;28;20045;-50
2023/11/02 01:53:31;;;;;;;13.25;11.88;;;;;;;;;;5032560;28;20128;-52
2023/11/02 01:56:13;;;;;;;22.95;14.32;;;;;;;;;;5032707;28;20400;-50
2023/11/02 01:58:45;;;;;;;15.70;13.40;;;;;;;;;;5027145;28;20495;-50
2023/11/02 02:01:23;;;;;;;17.65;13.43;;;;;;;;;;5012606;28;20026;-53
2023/11/02 02:03:52;;;;;;;19.95;13.48;;;;;;;;;;5012759;28;20044;-55
2023/11/02 02:06:22;;;;;;;15.50;11.93;;;;;;;;;;5014064;28;20087;-50
2023/11/02 02:09:01;;;;;;;18.67;13.10;;;;;;;;;;5013028;28;20038;-50
2023/11/02 02:11:46;;;;;;;22.35;13.10;;;;;;;;;;5012239;28;20091;-49
2023/11/02 02:14:12;;;;;;;20.98;15.18;;;;;;;;;;5030977;28;20029;-51
2023/11/02 02:16:41;;;;;;;23.05;15.02;;;;;;;;;;5032979;28;20091;-49
2023/11/02 02:19:39;;;;;;;20.10;13.48;;;;;;;;;;5032903;28;20108;-50
2023/11/02 02:22:10;;;;;;;16.02;12.88;;;;;;;;;;5031440;28;20113;-49
2023/11/02 02:24:43;;;;;;;18.17;14.15;;;;;;;;;;5031647;28;20099;-49
2023/11/02 02:27:20;;;;;;;21.88;14.80;;;;;;;;;;5031530;28;20030;-49
2023/11/02 02:29:53;;;;;;;15.95;14.23;;;;;;;;;;5032720;28;20034;-49
2023/11/02 02:32:21;;;;;;;25.48;15.93;;;;;;;;;;5032454;28;20124;-49
2023/11/02 02:34:51;;;;;;;25.13;16.60;;;;;;;;;;5032891;28;20079;-51
2023/11/02 02:37:37;;;;;;;21.80;14.98;;;;;;;;;;5032503;28;20488;-49
2023/11/02 02:40:07;;;;;;;19.58;15.80;;;;;;;;;;5018300;28;20488;-50
2023/11/02 02:42:37;;;;;;;19.75;16.48;;;;;;;;;;5031048;28;20120;-51
2023/11/02 02:45:06;;;;;;;18.13;15.48;;;;;;;;;;5032578;28;20036;-52
2023/11/02 02:47:32;;;;;;;20.40;16.23;;;;;;;;;;5030819;28;20132;-50
2023/11/02 02:49:59;;;;;;;23.13;15.75;;;;;;;;;;5031286;28;20495;-50
2023/11/02 02:52:28;;;;;;;17.08;14.63;;;;;;;;;;5030918;28;20040;-49
2023/11/02 02:54:56;;;;;;;17.30;13.90;;;;;;;;;;5031217;28;20021;-49
2023/11/02 02:57:24;;;;;;;21.98;16.42;;;;;;;;;;5030691;28;20548;-49
2023/11/02 02:59:54;;;;;;;18.88;14.77;;;;;;;;;;5031156;28;20037;-50
2023/11/02 03:02:22;;;;;;;19.20;17.10;;;;;;;;;;5031889;28;20399;-50
2023/11/02 03:04:50;;;;;;;20.23;13.57;;;;;;;;;;5031981;28;20391;-51
2023/11/02 03:07:16;;;;;;;20.10;14.68;;;;;;;;;;5030890;28;20052;-54
2023/11/02 03:09:44;;;;;;;22.45;16.85;;;;;;;;;;5031411;28;21313;-52
2023/11/02 03:12:11;;;;;;;17.77;14.15;;;;;;;;;;5030464;28;20029;-55
2023/11/02 03:14:38;;;;;;;18.73;13.73;;;;;;;;;;5030909;28;20033;-50
2023/11/02 03:17:28;;;;;;;18.67;15.40;;;;;;;;;;5031932;28;20029;-53
2023/11/02 03:19:54;;;;;;;18.65;15.20;;;;;;;;;;5009754;28;20041;-49
2023/11/02 03:22:23;;;;;;;16.08;13.05;;;;;;;;;;5032087;28;20021;-52
2023/11/02 03:25:01;;;;;;;15.27;13.65;;;;;;;;;;5014473;28;20101;-49
2023/11/02 03:27:46;;;;;;;18.27;14.80;;;;;;;;;;5011075;28;20057;-50
2023/11/02 03:30:31;;;;;;;17.17;13.20;;;;;;;;;;5011150;28;20034;-51
2023/11/02 03:33:06;;;;;;;17.05;13.18;;;;;;;;;;5022069;28;20116;-53
2023/11/02 03:35:34;;;;;;;17.48;14.13;;;;;;;;;;5030749;28;20487;-52
2023/11/02 03:38:03;;;;;;;14.70;12.05;;;;;;;;;;5032141;28;20427;-51
2023/11/02 03:40:48;;;;;;;14.60;12.80;;;;;;;;;;5031607;28;20025;-51
2023/11/02 03:43:23;;;;;;;15.32;13.50;;;;;;;;;;5014238;28;20091;-49
2023/11/02 03:45:50;;;;;;;20.15;14.65;;;;;;;;;;5029792;28;20119;-50
2023/11/02 03:48:16;;;;;;;18.15;14.77;;;;;;;;;;5012070;28;20030;-52
2023/11/02 03:50:54;;;;;;;17.63;14.95;;;;;;;;;;5016476;28;20061;-50
2023/11/02 03:53:23;;;;;;;19.10;14.38;;;;;;;;;;5031158;28;20472;-51
2023/11/02 03:55:51;;;;;;;17.23;14.38;;;;;;;;;;5030676;28;20064;-51
2023/11/02 03:58:43;;;;;;;18.38;14.10;;;;;;;;;;5031554;28;20057;-52
2023/11/02 04:01:28;;;;;;;15.15;13.02;;;;;;;;;;5023485;28;20049;-50
2023/11/02 04:03:59;;;;;;;16.25;13.65;;;;;;;;;;5030624;28;20505;-50
2023/11/02 04:06:42;;;;;;;16.30;14.60;;;;;;;;;;5031686;28;20059;-51
2023/11/02 04:09:11;;;;;;;14.75;12.15;;;;;;;;;;5031181;28;20036;-48
2023/11/02 04:11:45;;;;;;;13.77;12.18;;;;;;;;;;5031044;28;20029;-51
2023/11/02 04:14:17;;;;;;;17.80;13.27;;;;;;;;;;5031390;28;20026;-51
2023/11/02 04:16:45;;;;;;;15.82;13.07;;;;;;;;;;5030892;28;20064;-52
2023/11/02 04:19:11;;;;;;;18.65;14.25;;;;;;;;;;5029753;28;20021;-50
2023/11/02 04:21:39;;;;;;;15.70;12.57;;;;;;;;;;5026118;28;20033;-53
2023/11/02 04:24:05;;;;;;;15.65;13.68;;;;;;;;;;5010537;28;20105;-50
2023/11/02 04:26:32;;;;;;;15.07;13.53;;;;;;;;;;5026978;28;20056;-50
2023/11/02 04:28:59;;;;;;;18.23;12.37;;;;;;;;;;5031212;28;20630;-51
2023/11/02 04:31:25;;;;;;;14.15;12.60;;;;;;;;;;5030904;28;20509;-54
2023/11/02 04:33:51;;;;;;;14.63;11.80;;;;;;;;;;5020422;28;20500;-51
2023/11/02 04:36:17;;;;;;;18.50;12.63;;;;;;;;;;5031474;28;20445;-51
2023/11/02 04:38:44;;;;;;;14.18;11.27;;;;;;;;;;5031204;28;20302;-50
2023/11/02 04:41:10;;;;;;;16.98;11.55;;;;;;;;;;5018896;28;20416;-50
2023/11/02 04:43:37;;;;;;;12.27;10.52;;;;;;;;;;5020330;28;20045;-52
2023/11/02 04:46:03;;;;;;;12.60;10.32;;;;;;;;;;5030519;28;20060;-51
2023/11/02 04:48:29;;;;;;;13.50;12.05;;;;;;;;;;5029482;28;20033;-51
2023/11/02 04:50:56;;;;;;;27.45;12.45;;;;;;;;;;5028437;28;20026;-49
2023/11/02 04:53:22;;;;;;;;;;;;;;;;;;5012942;28;20065;-50
2023/11/02 04:55:52;;;;;;;13.70;8.60;;;;;;;;;;5010737;28;19905;-51
2023/11/02 04:58:18;;;;;;;11.15;9.57;;;;;;;;;;5008738;28;20041;-53
2023/11/02 05:00:44;;;;;;;11.40;8.73;;;;;;;;;;5009816;28;20476;-50
2023/11/02 05:03:10;;;;;;;10.63;8.60;;;;;;;;;;5009570;28;20120;-53
2023/11/02 05:05:36;;;;;;;13.38;8.13;;;;;;;;;;5010969;28;20099;-49
2023/11/02 05:08:02;;;;;;;12.13;8.63;;;;;;;;;;5012883;28;20038;-53
2023/11/02 05:10:29;;;;;;;16.98;8.88;;;;;;;;;;5013843;28;20041;-52
2023/11/02 05:12:56;;;;;;;9.18;8.10;;;;;;;;;;5014909;28;20030;-50
2023/11/02 05:15:22;;;;;;;14.00;8.88;;;;;;;;;;5013752;28;20477;-52
2023/11/02 05:17:48;;;;;;;11.23;7.88;;;;;;;;;;5013718;28;20117;-51
2023/11/02 05:20:15;;;;;;;14.43;7.77;;;;;;;;;;5013790;28;20030;-52
2023/11/02 05:22:41;;;;;;;9.05;6.97;;;;;;;;;;5014630;28;20455;-53
2023/11/02 05:25:08;;;;;;;9.38;6.85;;;;;;;;;;5014936;28;20114;-49
2023/11/02 05:27:34;;;;;;;12.00;7.72;;;;;;;;;;5014902;28;20085;-49
2023/11/02 05:30:01;;;;;;;13.73;8.05;;;;;;;;;;5014817;28;20033;-50
2023/11/02 05:32:27;;;;;;;11.05;7.60;;;;;;;;;;5024144;28;20041;-54
2023/11/02 05:34:53;;;;;;;11.97;7.57;;;;;;;;;;5034249;28;20472;-50
2023/11/02 05:37:19;;;;;;;8.43;6.37;;;;;;;;;;5033179;28;20037;-55
2023/11/02 05:39:46;;;;;;;8.65;6.57;;;;;;;;;;5034224;28;20103;-51
2023/11/02 05:42:12;;;;;;;9.57;6.63;;;;;;;;;;5034138;28;20060;-50
2023/11/02 05:44:38;;;;;;;7.88;6.80;;;;;;;;;;5034179;28;20083;-51
2023/11/02 05:47:04;;;;;;;9.02;7.07;;;;;;;;;;5033980;28;20053;-50
2023/11/02 05:49:30;;;;;;;9.07;7.28;;;;;;;;;;5034109;28;20504;-50
2023/11/02 05:51:56;;;;;;;7.93;7.20;;;;;;;;;;5033824;28;20445;-52
2023/11/02 05:54:23;;;;;;;11.40;8.77;;;;;;;;;;5034053;28;20026;-51
2023/11/02 05:56:49;;;;;;;12.10;8.40;;;;;;;;;;5033953;28;20017;-49
2023/11/02 05:59:15;;;;;;;19.63;17.80;;;;;;;;;;5033874;28;20491;-51
2023/11/02 06:01:41;;;;;;;14.73;9.67;;;;;;;;;;5033921;28;20033;-49
2023/11/02 06:04:07;;;;;;;8.77;6.53;;;;;;;;;;5033773;28;20033;-50
2023/11/02 06:06:34;;;;;;;9.97;7.60;;;;;;;;;;5033741;28;20059;-52
2023/11/02 06:09:00;;;;;;;14.07;12.85;;;;;;;;;;5033663;28;20274;-53
2023/11/02 06:11:26;;;;;;;11.52;9.20;;;;;;;;;;5032430;28;20014;-50
2023/11/02 06:13:52;;;;;;;11.45;8.32;;;;;;;;;;5032513;28;20033;-50
2023/11/02 06:16:18;;;;;;;8.93;7.78;;;;;;;;;;5033700;28;20075;-50
2023/11/02 06:18:44;;;;;;;8.85;7.35;;;;;;;;;;5031606;28;20028;-50
2023/11/02 06:21:11;;;;;;;12.90;7.53;;;;;;;;;;5032198;28;20048;-52
2023/11/02 06:23:37;;;;;;;9.88;7.82;;;;;;;;;;5033543;28;20033;-50
2023/11/02 06:26:03;;;;;;;11.82;10.63;;;;;;;;;;5033517;28;20034;-53
2023/11/02 06:28:29;;;;;;;15.32;9.85;;;;;;;;;;5033402;28;20033;-49
2023/11/02 06:30:55;;;;;;;12.25;8.02;;;;;;;;;;5031997;28;20033;-50
2023/11/02 06:33:27;;;;;;;9.73;7.18;;;;;;;;;;5031789;28;20033;-49
2023/11/02 06:35:54;;;;;;;9.25;7.65;;;;;;;;;;5033244;28;20040;-53
2023/11/02 06:38:21;;;;;;;11.48;8.25;;;;;;;;;;5032729;28;20440;-52
2023/11/02 06:40:47;;;;;;;;;;;;;;;;;;5033411;28;20026;-49
2023/11/02 06:43:13;;;;;;;11.55;8.18;;;;;;;;;;5031939;28;19909;-50
2023/11/02 06:45:40;;;;;;;11.65;9.60;;;;;;;;;;5033333;28;20033;-51
2023/11/02 06:48:06;;;;;;;14.18;8.82;;;;;;;;;;5032822;28;20113;-50
2023/11/02 06:50:32;;;;;;;10.97;7.77;;;;;;;;;;5032992;28;20036;-53
2023/11/02 06:52:59;;;;;;;13.68;8.70;;;;;;;;;;5031530;28;20040;-53
2023/11/02 06:55:25;;;;;;;8.25;6.57;;;;;;;;;;5033020;28;20399;-53
2023/11/02 06:57:51;;;;;;;14.27;8.40;;;;;;;;;;5032873;28;20029;-52
2023/11/02 07:00:18;;;;;;;7.30;6.50;;;;;;;;;;5032853;28;20061;-50
2023/11/02 07:02:44;;;;;;;12.05;6.72;;;;;;;;;;5031094;28;20040;-49
2023/11/02 07:05:11;;;;;;;9.43;6.20;;;;;;;;;;5031840;28;20444;-49
2023/11/02 07:07:40;;;;;;;11.17;5.83;;;;;;;;;;5031244;28;20033;-51
2023/11/02 07:10:08;;;;;;;9.18;5.47;;;;;;;;;;5031594;28;20107;-47
2023/11/02 07:12:34;;;;;;;7.07;6.05;;;;;;;;;;5031115;28;20033;-47
2023/11/02 07:15:01;;;;;;;7.53;6.20;;;;;;;;;;5032516;28;20026;-47
2023/11/02 07:17:27;;;;;;;6.72;5.43;;;;;;;;;;5032230;28;20330;-50
2023/11/02 07:19:53;;;;;;;12.63;11.27;;;;;;;;;;5031335;28;20033;-50
2023/11/02 07:22:20;;;;;;;13.00;8.55;;;;;;;;;;5031072;28;20061;-47
2023/11/02 07:24:46;;;;;;;12.52;7.45;;;;;;;;;;5032397;28;20034;-46
2023/11/02 07:27:12;;;;;;;9.73;7.70;;;;;;;;;;5031104;28;20503;-46
2023/11/02 07:29:39;;;;;;;9.90;5.97;;;;;;;;;;5030233;28;20395;-47
2023/11/02 07:32:05;;;;;;;5.65;4.57;;;;;;;;;;5030632;28;20044;-47
2023/11/02 07:34:31;;;;;;;6.40;5.70;;;;;;;;;;5032151;28;20033;-47
2023/11/02 07:36:59;;;;;;;6.35;5.05;;;;;;;;;;5032070;28;20423;-50
2023/11/02 07:39:25;;;;;;;6.40;5.00;;;;;;;;;;5031988;28;20545;-46
2023/11/02 07:41:52;;;;;;;5.97;5.35;;;;;;;;;;5031934;28;20072;-48
2023/11/02 07:44:19;;;;;;;10.88;7.93;;;;;;;;;;5031995;28;20029;-47
2023/11/02 07:46:45;;;;;;;7.07;4.63;;;;;;;;;;5030777;28;20037;-48
2023/11/02 07:49:12;;;;;;;5.75;4.75;;;;;;;;;;5031808;28;20104;-48
2023/11/02 07:51:38;;;;;;;6.30;5.15;;;;;;;;;;5031639;28;20030;-47
2023/11/02 07:54:07;;;;;;;6.30;5.70;;;;;;;;;;5031875;28;20029;-47
2023/11/02 07:56:33;;;;;;;8.05;5.97;;;;;;;;;;5031943;28;20040;-47
2023/11/02 07:58:59;;;;;;;8.85;6.15;;;;;;;;;;5030546;28;20032;-49
2023/11/02 08:01:25;;;;;;;8.40;6.95;;;;;;;;;;5031735;28;20034;-49
2023/11/02 08:03:51;;;;;;;7.07;5.40;;;;;;;;;;5031646;28;20029;-52
2023/11/02 08:06:18;;;;;;;8.10;6.33;;;;;;;;;;5031755;28;20030;-49
2023/11/02 08:08:44;;;;;;;8.23;4.80;;;;;;;;;;5047596;23;20578;-49
2023/11/02 08:11:10;;;;;;;7.80;5.73;;;;;;;;;;5004146;28;20025;-51
2023/11/02 08:13:37;;;;;;;5.78;4.55;;;;;;;;;;4992343;28;20049;-49
2023/11/02 08:16:03;;;;;;;5.20;4.15;;;;;;;;;;5007540;28;20030;-50
2023/11/02 08:18:29;;;;;;;12.67;6.40;;;;;;;;;;4992121;28;20038;-49
2023/11/02 08:20:56;;;;;;;9.07;7.03;;;;;;;;;;4992177;28;20030;-51
2023/11/02 08:23:22;;;;;;;5.05;3.90;;;;;;;;;;4992378;28;20273;-49
2023/11/02 08:25:49;;;;;;;9.68;8.43;;;;;;;;;;4992292;28;20030;-51
2023/11/02 08:28:15;;;;;;;;;;;;;;;;;;4992614;28;20038;-50
2023/11/02 08:30:41;;;;;;;8.15;5.22;;;;;;;;;;4992051;28;19909;-49
2023/11/02 08:33:11;;;;;;;13.35;4.60;;;;;;;;;;5000596;28;20026;-53
2023/11/02 08:35:37;;;;;;;4.93;4.20;;;;;;;;;;5026844;28;20026;-50
2023/11/02 08:38:04;;;;;;;10.73;4.63;;;;;;;;;;5011692;28;20022;-50
2023/11/02 08:40:30;;;;;;;7.03;3.95;;;;;;;;;;4971687;28;20397;-50
2023/11/02 08:42:57;;;;;;;7.53;4.72;;;;;;;;;;5019220;28;20026;-51
2023/11/02 08:45:23;;;;;;;9.00;3.75;;;;;;;;;;5015782;28;20058;-50
2023/11/02 08:47:49;;;;;;;8.27;7.27;;;;;;;;;;5013980;28;20083;-49
2023/11/02 08:50:15;;;;;;;6.70;5.05;;;;;;;;;;5015411;28;20076;-50
2023/11/02 08:52:41;;;;;;;6.95;4.65;;;;;;;;;;5013812;28;20045;-50
2023/11/02 08:55:08;;;;;;;7.50;4.07;;;;;;;;;;5022740;28;20087;-50
2023/11/02 08:57:35;;;;;;;7.30;4.50;;;;;;;;;;5035144;28;20313;-49
2023/11/02 09:00:01;;;;;;;6.32;3.58;;;;;;;;;;5050508;28;20025;-53
2023/11/02 09:02:29;;;;;;;7.90;4.43;;;;;;;;;;5034835;28;20028;-49
2023/11/02 09:04:55;;;;;;;9.05;4.43;;;;;;;;;;5034069;28;20514;-51
2023/11/02 09:07:21;;;;;;;9.05;4.50;;;;;;;;;;5035105;28;20025;-50
2023/11/02 09:09:48;;;;;;;6.85;4.60;;;;;;;;;;5034834;28;20037;-50
2023/11/02 09:12:14;;;;;;;11.68;7.18;;;;;;;;;;5033373;28;20029;-49
2023/11/02 09:14:40;;;;;;;15.68;7.32;;;;;;;;;;5034897;28;20029;-51
2023/11/02 09:17:06;;;;;;;9.90;5.78;;;;;;;;;;5034802;28;20025;-52
2023/11/02 09:19:33;;;;;;;8.90;5.75;;;;;;;;;;5033523;28;20514;-49
2023/11/02 09:21:59;;;;;;;11.13;5.57;;;;;;;;;;5034583;28;20021;-52
2023/11/02 09:24:25;;;;;;;10.55;5.25;;;;;;;;;;5033279;28;20450;-49
2023/11/02 09:26:51;;;;;;;13.20;6.35;;;;;;;;;;5034645;28;20028;-51
2023/11/02 09:29:18;;;;;;;11.52;6.22;;;;;;;;;;5034551;28;20035;-52
2023/11/02 09:31:44;;;;;;;12.87;7.97;;;;;;;;;;5034397;28;20116;-51
2023/11/02 09:34:12;;;;;;;13.03;9.43;;;;;;;;;;5034465;28;20041;-50
2023/11/02 09:36:38;;;;;;;14.13;7.80;;;;;;;;;;5034414;28;20029;-50
2023/11/02 09:39:07;;;;;;;7.25;5.18;;;;;;;;;;5034266;28;20017;-50
2023/11/02 09:41:35;;;;;;;12.90;6.32;;;;;;;;;;5033764;28;20040;-49
2023/11/02 09:44:03;;;;;;;11.27;7.53;;;;;;;;;;5034131;28;20033;-50
2023/11/02 09:46:29;;;;;;;8.55;5.40;;;;;;;;;;5034468;28;20091;-49
2023/11/02 09:48:55;;;;;;;8.45;6.90;;;;;;;;;;5034183;28;20499;-50
2023/11/02 09:51:23;;;;;;;8.80;6.53;;;;;;;;;;5033909;28;20418;-52
2023/11/02 09:53:50;;;;;;;10.98;7.72;;;;;;;;;;5033063;28;20033;-51
2023/11/02 09:56:16;;;;;;;9.57;6.57;;;;;;;;;;5034020;28;20033;-50
2023/11/02 09:58:43;;;;;;;10.60;6.10;;;;;;;;;;5033992;28;20052;-53
2023/11/02 10:01:11;;;;;;;8.23;7.10;;;;;;;;;;5033734;28;20036;-50
2023/11/02 10:03:38;;;;;;;11.27;6.80;;;;;;;;;;5032832;28;20038;-52
2023/11/02 10:06:05;;;;;;;11.32;5.50;;;;;;;;;;5033816;28;20521;-49
2023/11/02 10:08:31;;;;;;;8.50;5.53;;;;;;;;;;5033642;28;20384;-52
2023/11/02 10:11:14;;;;;;;7.28;5.30;;;;;;;;;;5048901;28;20072;-50
2023/11/02 10:13:44;;;;;;;6.47;4.30;;;;;;;;;;5032280;28;20037;-49
2023/11/02 10:16:10;;;;;;;6.85;4.95;;;;;;;;;;5033587;28;20117;-50
2023/11/02 10:18:36;;;;;;;6.20;4.77;;;;;;;;;;5032186;28;20468;-50
2023/11/02 10:21:08;;;;;;;8.25;5.10;;;;;;;;;;5032140;28;20052;-51
2023/11/02 10:23:58;;;;;;;11.02;5.20;;;;;;;;;;5033476;28;20507;-49
2023/11/02 10:26:26;;;;;;;4.85;3.75;;;;;;;;;;5033490;28;20029;-50
2023/11/02 10:28:55;;;;;;;7.75;4.53;;;;;;;;;;5033269;28;20083;-49
2023/11/02 10:31:24;;;;;;;4.20;3.60;;;;;;;;;;5033133;28;20068;-50
2023/11/02 10:33:51;;;;;;;3.90;3.33;;;;;;;;;;5033339;28;20521;-49
2023/11/02 10:36:17;;;;;;;3.38;2.55;;;;;;;;;;5048596;28;20038;-51
2023/11/02 10:38:44;;;;;;;5.15;2.95;;;;;;;;;;5033270;28;20032;-51
2023/11/02 10:41:14;;;;;;;3.25;2.38;;;;;;;;;;5033013;28;20022;-53
2023/11/02 10:43:42;;;;;;;2.70;2.10;;;;;;;;;;5033175;28;20034;-50
2023/11/02 10:46:11;;;;;;;4.00;2.45;;;;;;;;;;5033077;28;20033;-52
2023/11/02 10:48:41;;;;;;;3.83;2.47;;;;;;;;;;5032936;28;20031;-49
2023/11/02 10:51:14;;;;;;;4.72;2.42;;;;;;;;;;5048155;28;20061;-52
2023/11/02 10:53:41;;;;;;;2.40;1.60;;;;;;;;;;5048241;28;20084;-52
2023/11/02 10:56:13;;;;;;;4.50;2.38;;;;;;;;;;5032852;28;20084;-50
2023/11/02 10:58:41;;;;;;;3.33;2.47;;;;;;;;;;5032783;28;20483;-50
2023/11/02 11:01:09;;;;;;;3.47;3.17;;;;;;;;;;5032570;28;20025;-57
2023/11/02 11:03:36;;;;;;;18.45;12.88;;;;;;;;;;5032710;28;20030;-49
2023/11/02 11:06:04;;;;;;;3.00;2.38;;;;;;;;;;5032576;28;20025;-49
2023/11/02 11:08:31;;;;;;;2.95;1.50;;;;;;;;;;5032354;28;20087;-50
2023/11/02 11:10:59;;;;;;;2.95;1.50;;;;;;;;;;5032384;28;20033;-50
2023/11/02 11:13:26;;;;;;;2.22;1.75;;;;;;;;;;5032476;28;20021;-50
2023/11/02 11:15:53;;;;;;;3.42;1.70;;;;;;;;;;5015272;28;20026;-49
2023/11/02 11:18:21;;;;;;;5.80;2.30;;;;;;;;;;5007434;28;20022;-49
2023/11/02 11:20:49;;;;;;;2.75;2.17;;;;;;;;;;4994433;28;20440;-48
2023/11/02 11:23:16;;;;;;;2.60;2.28;;;;;;;;;;5000406;28;20053;-50
2023/11/02 11:26:04;;;;;;;4.45;3.47;;;;;;;;;;5012841;28;20030;-49
2023/11/02 11:28:31;;;;;;;6.80;3.28;;;;;;;;;;5012191;28;20080;-50
2023/11/02 11:30:59;;;;;;;6.97;4.90;;;;;;;;;;5011695;28;20058;-49
2023/11/02 11:33:26;;;;;;;;;;;;;;;;;;5012078;28;20412;-51
2023/11/02 11:36:11;;;;;;;11.07;5.55;;;;;;;;;;5004465;28;19979;-49
2023/11/02 11:38:38;;;;;;;5.07;4.35;;;;;;;;;;5001216;28;20392;-50
2023/11/02 11:41:24;;;;;;;6.25;4.90;;;;;;;;;;4993168;28;20065;-49
2023/11/02 11:44:03;;;;;;;5.55;4.15;;;;;;;;;;5008635;28;20120;-51
2023/11/02 11:46:56;;;;;;;7.20;6.38;;;;;;;;;;4999340;28;20065;-49
2023/11/02 11:49:39;;;;;;;11.90;8.55;;;;;;;;;;5006779;28;20050;-48
2023/11/02 11:52:24;;;;;;;7.15;4.60;;;;;;;;;;5003897;28;20034;-53
2023/11/02 11:54:51;;;;;;;9.27;6.13;;;;;;;;;;4989291;28;20092;-49
2023/11/02 11:57:36;;;;;;;5.35;4.07;;;;;;;;;;4991589;28;20030;-49
2023/11/02 12:00:09;;;;;;;4.20;3.50;;;;;;;;;;4994334;28;20036;-52
2023/11/02 12:02:38;;;;;;;8.35;5.32;;;;;;;;;;4994749;28;20035;-49
2023/11/02 12:05:04;;;;;;;8.68;6.10;;;;;;;;;;4993320;28;20124;-51
2023/11/02 12:07:33;;;;;;;4.03;3.17;;;;;;;;;;5002354;28;20386;-50
2023/11/02 12:10:03;;;;;;;6.82;3.40;;;;;;;;;;5001206;28;20109;-49
2023/11/02 12:12:30;;;;;;;5.88;3.75;;;;;;;;;;4998668;28;20030;-49
2023/11/02 12:14:56;;;;;;;6.03;3.35;;;;;;;;;;4998065;28;20030;-47
2023/11/02 12:17:23;;;;;;;7.00;5.00;;;;;;;;;;5004316;28;20100;-52
2023/11/02 12:19:49;;;;;;;19.38;14.52;;;;;;;;;;4994316;28;20084;-49
2023/11/02 12:22:15;;;;;;;12.80;9.13;;;;;;;;;;5002636;28;20109;-50
2023/11/02 12:24:55;;;;;;;11.95;8.50;;;;;;;;;;5002265;28;20276;-49
2023/11/02 12:27:21;;;;;;;7.28;5.50;;;;;;;;;;4999894;28;20117;-48
2023/11/02 12:29:57;;;;;;;8.32;6.25;;;;;;;;;;5007989;28;20027;-49
2023/11/02 12:32:24;;;;;;;10.85;7.05;;;;;;;;;;5006166;28;20168;-52
2023/11/02 12:34:50;;;;;;;5.60;3.85;;;;;;;;;;5005967;28;20109;-50
2023/11/02 12:37:16;;;;;;;59.70;51.15;;;;;;;;;;5006725;28;20033;-51
2023/11/02 12:39:56;;;;;;;8.10;4.63;;;;;;;;;;5000640;28;20042;-51
2023/11/02 12:42:23;;;;;;;4.32;2.97;;;;;;;;;;4999615;28;20469;-51
2023/11/02 12:44:51;;;;;;;;;;;;;;;;;;5007267;28;20026;-50
2023/11/02 12:47:17;;;;;;;4.97;3.33;;;;;;;;;;4999132;28;19945;-49
2023/11/02 12:49:44;;;;;;;4.55;4.07;;;;;;;;;;4999072;28;20037;-51
2023/11/02 12:52:10;;;;;;;6.07;3.60;;;;;;;;;;4995276;28;20088;-49
2023/11/02 12:54:37;;;;;;;6.33;4.43;;;;;;;;;;4995813;28;20121;-49
2023/11/02 12:57:10;;;;;;;5.38;3.63;;;;;;;;;;5001296;28;20488;-49
2023/11/02 12:59:43;;;;;;;5.28;3.30;;;;;;;;;;4991756;28;20045;-50
2023/11/02 13:02:13;;;;;;;4.95;3.03;;;;;;;;;;4999132;28;20033;-49
2023/11/02 13:04:55;;;;;;;6.90;3.42;;;;;;;;;;5010368;28;20038;-51
2023/11/02 13:07:27;;;;;;;5.10;3.05;;;;;;;;;;4997884;28;20040;-49
2023/11/02 13:10:09;;;;;;;4.57;3.20;;;;;;;;;;5010509;28;20739;-49
2023/11/02 13:12:36;;;;;;;6.45;2.97;;;;;;;;;;4998649;28;20080;-50
2023/11/02 13:15:08;;;;;;;5.40;2.88;;;;;;;;;;5001589;28;20026;-53
2023/11/02 13:17:44;;;;;;;3.00;2.70;;;;;;;;;;5013516;28;20030;-52
2023/11/02 13:20:12;;;;;;;3.35;3.05;;;;;;;;;;5001459;28;20049;-50
2023/11/02 13:22:38;;;;;;;2.88;2.30;;;;;;;;;;5008998;28;20109;-49
2023/11/02 13:25:08;;;;;;;7.20;2.93;;;;;;;;;;5002987;28;20052;-50
2023/11/02 13:27:34;;;;;;;5.75;3.30;;;;;;;;;;5000728;28;20280;-52
2023/11/02 13:30:00;;;;;;;6.32;3.00;;;;;;;;;;4994841;28;20045;-50
2023/11/02 13:32:29;;;;;;;2.97;2.67;;;;;;;;;;5009747;28;20084;-49
2023/11/02 13:34:55;;;;;;;3.53;2.90;;;;;;;;;;5013749;28;20480;-49
2023/11/02 13:37:21;;;;;;;4.03;3.20;;;;;;;;;;5015241;28;20091;-49
2023/11/02 13:39:48;;;;;;;6.07;2.80;;;;;;;;;;5008836;28;20070;-49
2023/11/02 13:42:14;;;;;;;;;;;;;;;;;;4999926;28;20421;-49
2023/11/02 13:44:40;;;;;;;10.68;7.57;;;;;;;;;;5013159;28;20302;-49
2023/11/02 13:47:07;;;;;;;6.00;4.03;;;;;;;;;;5004379;28;20523;-50
2023/11/02 13:49:33;;;;;;;7.05;3.25;;;;;;;;;;4992217;28;20484;-49
2023/11/02 13:51:59;;;;;;;4.50;3.40;;;;;;;;;;4993062;28;20097;-51
2023/11/02 13:54:26;;;;;;;41.03;30.50;;;;;;;;;;5002728;28;20036;-49
2023/11/02 13:56:52;;;;;;;5.88;3.45;;;;;;;;;;5002206;28;20293;-49
2023/11/02 13:59:18;;;;;;;4.47;3.22;;;;;;;;;;4999867;28;20034;-49
2023/11/02 14:01:45;;;;;;;3.80;2.92;;;;;;;;;;5006232;28;20034;-49
2023/11/02 14:04:11;;;;;;;4.90;3.40;;;;;;;;;;5005981;28;20074;-49
2023/11/02 14:06:38;;;;;;;6.57;3.55;;;;;;;;;;4999567;28;20045;-49
2023/11/02 14:09:05;;;;;;;3.95;2.90;;;;;;;;;;5013541;28;20073;-53
2023/11/02 14:11:32;;;;;;;7.35;3.85;;;;;;;;;;5002654;28;20037;-49
2023/11/02 14:13:59;;;;;;;3.50;3.08;;;;;;;;;;5007950;28;20033;-53
2023/11/02 14:16:25;;;;;;;4.07;3.05;;;;;;;;;;4997537;28;20031;-49
2023/11/02 14:18:51;;;;;;;5.85;2.95;;;;;;;;;;5012266;28;20041;-50
2023/11/02 14:21:17;;;;;;;5.07;3.53;;;;;;;;;;4994780;28;20155;-51
2023/11/02 14:23:43;;;;;;;6.93;3.65;;;;;;;;;;5007010;28;20500;-49
2023/11/02 14:26:10;;;;;;;5.67;3.07;;;;;;;;;;5007098;28;20034;-51
2023/11/02 14:28:37;;;;;;;5.07;3.33;;;;;;;;;;5004882;28;20044;-50
2023/11/02 14:31:04;;;;;;;3.70;3.28;;;;;;;;;;5005375;28;20105;-52
2023/11/02 14:33:30;;;;;;;;;;;;;;;;;;4998989;28;20118;-52
2023/11/02 14:36:02;;;;;;;7.60;3.00;;;;;;;;;;5011775;28;19956;-52
2023/11/02 14:38:28;;;;;;;12.45;5.22;;;;;;;;;;4995980;28;20475;-51
2023/11/02 14:40:55;;;;;;;7.37;4.00;;;;;;;;;;4995555;28;20097;-51
2023/11/02 14:43:25;;;;;;;5.97;3.80;;;;;;;;;;4992313;28;20042;-50
2023/11/02 14:45:51;;;;;;;5.60;3.53;;;;;;;;;;4997436;28;20069;-49